Tyrone, Colorado
Current Conditions -  °F | °C
As of 12:54 PM on Friday 24 Oct 2014 (Local Time) from KTAD Reporting Station
Clear Clear  
Wind Chill: 77°   Ceiling: Unl
Heat Index: 77°   Visibility: 10mi
Dew Point: 30°   Wind: 3mph
Humidity: 18%   Direction: NA
Pressure: 30.22"   Gusts: NA
Location:  37.5307°N, 104.063°W
Report Text: KTAD 241854Z AUTO VRB03KT 10SM CLR 25/M01 A3022 RMK AO2 SLP163 T02501011
Loading
Personal Weather Stations






























Interactive Weather Map New forecast layout! Learn more

10-Day Weather Forecast

Advertisements
Track Severe Weather on mobile